Time;durP1;ratioP1;P1;durP2;ratioP2;P2;SDS_P1;SDS_P2;PMS_P1;PMS_P2;Temp;Humidity;BMP_temperature;BMP_pressure;BME280_temperature;BME280_humidity;BME280_pressure;Samples;Min_cycle;Max_cycle;Signal;HPM_P1;HPM_P2
2022/10/30 00:01:19;;;;;;;27.10;15.43;;;;;;;15.45;58.74;95815.75;5031998;28;20200;-68
2022/10/30 00:03:46;;;;;;;18.02;14.23;;;;;;;15.35;59.03;95814.44;5032128;28;20254;-68
2022/10/30 00:06:13;;;;;;;19.08;13.73;;;;;;;15.28;59.07;95810.50;5031716;28;20250;-68
2022/10/30 00:08:39;;;;;;;20.95;14.50;;;;;;;15.24;59.47;95803.81;5032263;28;20262;-67
2022/10/30 00:11:08;;;;;;;22.80;15.35;;;;;;;15.28;59.21;95810.50;5032079;28;20285;-67
2022/10/30 00:13:36;;;;;;;17.42;12.85;;;;;;;15.31;58.93;95820.63;5031987;28;20204;-68
2022/10/30 00:16:06;;;;;;;16.50;12.95;;;;;;;15.38;58.86;95816.88;5031698;28;20192;-68
2022/10/30 00:18:34;;;;;;;17.83;14.05;;;;;;;15.40;58.71;95825.34;5031739;28;20207;-68
2022/10/30 00:21:05;;;;;;;16.48;13.23;;;;;;;15.34;58.81;95819.66;5031407;28;20203;-68
2022/10/30 00:23:32;;;;;;;16.95;12.73;;;;;;;15.29;58.92;95813.00;5031923;28;20234;-68
2022/10/30 00:26:03;;;;;;;22.35;14.10;;;;;;;15.19;59.02;95821.09;5031432;28;20258;-67
2022/10/30 00:28:29;;;;;;;19.05;14.05;;;;;;;15.20;58.83;95820.19;5031170;28;20673;-67
2022/10/30 00:31:00;;;;;;;17.38;13.65;;;;;;;15.18;59.17;95821.97;5031678;28;20199;-68
2022/10/30 00:33:27;;;;;;;15.70;12.85;;;;;;;15.17;59.41;95817.75;5031394;28;20618;-68
2022/10/30 00:35:54;;;;;;;16.42;12.63;;;;;;;15.12;58.93;95814.53;5031866;28;20257;-67
2022/10/30 00:38:20;;;;;;;14.05;11.82;;;;;;;15.07;59.21;95816.47;5031841;28;20204;-68
2022/10/30 00:40:47;;;;;;;17.95;13.15;;;;;;;15.03;59.00;95810.63;5031756;28;20657;-67
2022/10/30 00:43:32;;;;;;;17.42;12.65;;;;;;;14.99;59.65;95809.06;5031654;28;20227;-68
2022/10/30 00:46:05;;;;;;;17.10;12.02;;;;;;;15.04;59.22;95811.47;5031593;28;20200;-68
2022/10/30 00:48:32;;;;;;;15.57;11.88;;;;;;;14.98;59.12;95803.13;5031414;28;20195;-67
2022/10/30 00:51:02;;;;;;;16.38;11.35;;;;;;;14.95;59.42;95805.78;5031023;28;20665;-68
2022/10/30 00:53:29;;;;;;;18.42;11.70;;;;;;;14.95;59.79;95807.53;5031626;28;20666;-69
2022/10/30 00:56:01;;;;;;;16.45;13.48;;;;;;;14.94;59.60;95803.28;5031120;28;20243;-67
2022/10/30 00:58:33;;;;;;;14.90;12.38;;;;;;;14.97;59.67;95801.44;5031332;28;20200;-67
2022/10/30 01:01:04;;;;;;;15.52;13.85;;;;;;;14.97;59.31;95796.34;5031113;28;20266;-68
2022/10/30 01:03:32;;;;;;;19.55;14.60;;;;;;;14.98;59.40;95792.88;5031112;28;20586;-68
2022/10/30 01:06:03;;;;;;;15.73;12.32;;;;;;;14.91;58.94;95795.72;5031046;28;20265;-67
2022/10/30 01:08:29;;;;;;;17.80;15.30;;;;;;;14.89;59.36;95790.66;5030859;28;20211;-68
2022/10/30 01:10:59;;;;;;;22.02;14.65;;;;;;;14.91;59.32;95791.44;5030927;28;20257;-68
2022/10/30 01:13:27;;;;;;;19.23;12.98;;;;;;;14.85;60.03;95785.72;5030725;28;20744;-67
2022/10/30 01:16:13;;;;;;;17.80;13.43;;;;;;;14.66;60.11;95780.47;5030839;28;20196;-68
2022/10/30 01:18:48;;;;;;;15.90;10.82;;;;;;;14.53;60.50;95779.28;5030972;28;20203;-68
2022/10/30 01:21:33;;;;;;;17.58;11.63;;;;;;;14.51;60.81;95775.97;5030504;28;20199;-68
2022/10/30 01:24:13;;;;;;;21.45;11.13;;;;;;;14.53;60.89;95776.75;5031086;28;20219;-68
2022/10/30 01:26:51;;;;;;;13.13;10.30;;;;;;;14.65;60.30;95768.59;5030615;28;20199;-68
2022/10/30 01:29:34;;;;;;;12.90;10.52;;;;;;;14.72;60.32;95764.06;5030746;28;20257;-68
2022/10/30 01:32:17;;;;;;;11.63;10.43;;;;;;;14.70;59.68;95771.81;5030672;28;20227;-67
2022/10/30 01:34:51;;;;;;;13.55;11.25;;;;;;;14.73;59.89;95773.41;5030725;28;20249;-67
2022/10/30 01:37:25;;;;;;;18.83;11.57;;;;;;;14.70;60.04;95771.81;5030591;28;20199;-69
2022/10/30 01:39:52;;;;;;;14.27;11.40;;;;;;;14.70;59.67;95770.97;5032685;28;20253;-68
2022/10/30 01:42:48;;;;;;;13.48;10.60;;;;;;;14.70;59.94;95764.13;5034550;28;20237;-68
2022/10/30 01:45:26;;;;;;;12.48;11.25;;;;;;;14.69;59.52;95764.19;5034955;28;20261;-68
2022/10/30 01:48:15;;;;;;;11.93;10.75;;;;;;;14.65;59.69;95763.47;5034758;28;20261;-68
2022/10/30 01:50:46;;;;;;;14.13;11.23;;;;;;;14.66;59.69;95765.13;5034810;28;20204;-68
2022/10/30 01:53:24;;;;;;;11.48;10.40;;;;;;;14.62;59.55;95764.41;5034572;28;20196;-68
2022/10/30 01:56:02;;;;;;;14.05;11.32;;;;;;;14.59;60.21;95768.84;5034151;28;20235;-67
2022/10/30 01:58:36;;;;;;;10.68;9.68;;;;;;;14.61;59.97;95767.03;5034405;28;20208;-67
2022/10/30 02:01:04;;;;;;;12.95;11.10;;;;;;;14.61;59.78;95762.75;5034293;28;20289;-68
2022/10/30 02:03:33;;;;;;;11.77;10.40;;;;;;;14.57;59.91;95757.84;5033947;28;20227;-68
2022/10/30 02:06:00;;;;;;;11.63;10.27;;;;;;;14.57;59.98;95753.56;5034416;28;20200;-69
2022/10/30 02:08:27;;;;;;;10.98;9.88;;;;;;;14.56;59.88;95763.84;5034312;28;20223;-68
2022/10/30 02:10:54;;;;;;;9.70;8.63;;;;;;;14.55;59.87;95757.88;5034429;28;20253;-68
2022/10/30 02:13:21;;;;;;;11.70;9.80;;;;;;;14.56;59.84;95758.72;5034418;28;20196;-68
2022/10/30 02:15:49;;;;;;;10.55;9.25;;;;;;;14.44;59.96;95751.50;5034894;28;20261;-68
2022/10/30 02:18:16;;;;;;;12.65;9.40;;;;;;;14.35;60.46;95757.78;5034236;28;20661;-68
2022/10/30 02:20:44;;;;;;;11.80;9.90;;;;;;;14.25;60.33;95751.31;5033917;28;20338;-68
2022/10/30 02:23:17;;;;;;;10.93;9.40;;;;;;;14.24;60.58;95749.66;5034925;28;20312;-68
2022/10/30 02:25:44;;;;;;;14.05;9.55;;;;;;;14.25;60.49;95744.50;5053913;28;20589;-68
2022/10/30 02:28:11;;;;;;;9.32;8.48;;;;;;;14.28;60.28;95754.59;5054128;28;20198;-68
2022/10/30 02:30:37;;;;;;;11.27;8.77;;;;;;;14.33;60.09;95745.94;5053959;28;20260;-68
2022/10/30 02:33:04;;;;;;;12.13;8.85;;;;;;;14.35;60.00;95750.09;5053600;28;20196;-69
2022/10/30 02:35:31;;;;;;;9.45;8.55;;;;;;;14.35;60.27;95749.28;5053398;28;20249;-67
2022/10/30 02:37:59;;;;;;;10.52;8.68;;;;;;;14.35;60.29;95751.81;5053393;28;20209;-69
2022/10/30 02:40:26;;;;;;;8.88;8.18;;;;;;;14.24;60.63;95747.09;5053952;28;20253;-68
2022/10/30 02:42:53;;;;;;;9.98;8.98;;;;;;;14.32;60.42;95750.22;5053598;28;20219;-68
2022/10/30 02:45:20;;;;;;;8.98;8.02;;;;;;;14.39;60.29;95750.78;5053511;28;20655;-68
2022/10/30 02:47:47;;;;;;;10.82;8.70;;;;;;;14.33;60.43;95751.06;5053450;28;20746;-68
2022/10/30 02:50:14;;;;;;;11.90;8.52;;;;;;;14.32;60.16;95749.38;5053509;28;20202;-69
2022/10/30 02:52:41;;;;;;;13.38;8.63;;;;;;;14.22;60.54;95754.81;5053413;28;20317;-68
2022/10/30 02:55:09;;;;;;;11.57;8.70;;;;;;;14.16;60.58;95760.16;5053296;28;20257;-68
2022/10/30 02:57:36;;;;;;;11.55;9.30;;;;;;;14.18;60.41;95762.66;5053324;28;20233;-67
2022/10/30 03:00:03;;;;;;;9.23;8.15;;;;;;;14.23;60.56;95760.78;5052916;28;20743;-67
2022/10/30 03:02:30;;;;;;;10.55;8.63;;;;;;;14.27;59.98;95759.78;5053416;28;20202;-68
2022/10/30 03:04:57;;;;;;;9.18;8.27;;;;;;;14.23;60.46;95766.72;5053013;28;20202;-67
2022/10/30 03:07:23;;;;;;;9.73;8.63;;;;;;;14.20;60.61;95761.72;5053243;28;20280;-68
2022/10/30 03:09:50;;;;;;;9.52;8.15;;;;;;;14.19;60.44;95760.03;5052875;28;20742;-69
2022/10/30 03:12:19;;;;;;;9.77;7.82;;;;;;;14.16;60.51;95765.25;5053156;28;20260;-67
2022/10/30 03:14:45;;;;;;;9.23;8.40;;;;;;;14.05;60.60;95767.41;5052821;28;20194;-68
2022/10/30 03:17:12;;;;;;;12.43;9.38;;;;;;;14.12;60.67;95773.09;5053118;28;20203;-69
2022/10/30 03:19:39;;;;;;;9.65;8.77;;;;;;;14.07;60.93;95770.72;5053043;28;20211;-67
2022/10/30 03:22:06;;;;;;;10.52;8.70;;;;;;;13.93;61.29;95775.47;5052943;28;20206;-68
2022/10/30 03:24:33;;;;;;;7.43;6.82;;;;;;;13.67;62.06;95775.53;5052527;28;20304;-69
2022/10/30 03:27:00;;;;;;;10.13;6.97;;;;;;;13.28;63.24;95769.19;5052597;28;20203;-74
2022/10/30 03:29:28;;;;;;;8.50;7.80;;;;;;;12.71;63.96;95771.00;5053414;28;20265;-72
2022/10/30 03:31:55;;;;;;;9.88;8.25;;;;;;;11.65;67.58;95769.75;5052889;28;20203;-73
2022/10/30 03:34:22;;;;;;;11.88;9.32;;;;;;;11.25;69.56;95781.78;5053092;28;20198;-72
2022/10/30 03:36:48;;;;;;;13.15;9.57;;;;;;;10.69;71.67;95785.66;5052997;28;20262;-73
2022/10/30 03:39:15;;;;;;;11.50;8.80;;;;;;;10.56;72.00;95779.19;5052979;28;20656;-73
2022/10/30 03:41:43;;;;;;;10.25;9.25;;;;;;;10.65;71.99;95784.03;5052867;28;20195;-72
2022/10/30 03:44:09;;;;;;;13.27;9.25;;;;;;;10.82;72.27;95774.34;5052723;28;20633;-73
2022/10/30 03:46:38;;;;;;;9.18;8.23;;;;;;;10.68;72.44;95773.81;5052998;28;20207;-73
2022/10/30 03:49:04;;;;;;;9.65;8.75;;;;;;;10.29;72.92;95779.78;5052861;28;20195;-73
2022/10/30 03:51:31;;;;;;;14.13;9.73;;;;;;;10.29;73.59;95774.69;5052354;28;20886;-73
2022/10/30 03:53:58;;;;;;;12.38;9.90;;;;;;;10.18;74.33;95773.19;5052454;28;20195;-73
2022/10/30 03:56:24;;;;;;;11.77;8.82;;;;;;;10.39;74.09;95776.19;5051802;28;20312;-72
2022/10/30 03:58:51;;;;;;;10.30;9.13;;;;;;;10.04;75.20;95765.00;5048219;28;20258;-72
2022/10/30 04:01:18;;;;;;;9.43;8.55;;;;;;;10.01;75.33;95770.16;5050551;28;20211;-75
2022/10/30 04:03:46;;;;;;;13.20;8.63;;;;;;;10.16;74.69;95759.66;5052058;28;20285;-73
2022/10/30 04:06:13;;;;;;;9.73;8.27;;;;;;;10.09;74.50;95758.16;5052228;28;20618;-73
2022/10/30 04:08:39;;;;;;;10.20;8.27;;;;;;;10.13;74.87;95761.47;5034412;28;20208;-72
2022/10/30 04:11:06;;;;;;;16.50;9.02;;;;;;;9.87;74.75;95764.53;5032578;28;20196;-73
2022/10/30 04:13:33;;;;;;;9.20;8.38;;;;;;;9.84;75.17;95769.66;5032495;28;20196;-71
2022/10/30 04:15:59;;;;;;;10.95;8.27;;;;;;;9.45;77.27;95766.16;5032002;28;20633;-72
2022/10/30 04:18:26;;;;;;;9.30;8.32;;;;;;;9.50;77.28;95757.59;5046563;28;20203;-73
2022/10/30 04:20:54;;;;;;;9.40;8.32;;;;;;;9.59;77.47;95764.22;5051387;28;20203;-73
2022/10/30 04:23:22;;;;;;;12.65;8.20;;;;;;;9.72;76.61;95763.09;5051853;28;20222;-73
2022/10/30 04:25:49;;;;;;;10.40;9.07;;;;;;;9.74;76.36;95770.69;5052653;28;20198;-73
2022/10/30 04:28:16;;;;;;;15.13;9.65;;;;;;;9.52;77.70;95755.88;5037928;28;20199;-71
2022/10/30 04:30:44;;;;;;;9.52;8.55;;;;;;;9.50;78.40;95755.06;5031964;28;20207;-73
2022/10/30 04:33:12;;;;;;;8.68;7.88;;;;;;;9.67;77.71;95758.97;5032021;28;20233;-73
2022/10/30 04:35:39;;;;;;;14.77;8.85;;;;;;;9.78;76.66;95763.00;5031272;28;20200;-72
2022/10/30 04:38:10;;;;;;;9.55;8.55;;;;;;;9.81;76.37;95757.03;5043655;28;20276;-73
2022/10/30 04:40:38;;;;;;;15.10;8.35;;;;;;;9.68;76.07;95760.63;5051757;28;20289;-73
2022/10/30 04:43:06;;;;;;;9.95;8.82;;;;;;;9.67;76.69;95764.88;5050351;28;20227;-72
2022/10/30 04:45:32;;;;;;;9.88;8.05;;;;;;;9.62;76.40;95761.63;5051989;28;20199;-72
2022/10/30 04:48:03;;;;;;;10.93;8.25;;;;;;;9.24;77.73;95769.91;5050633;28;20694;-72
2022/10/30 04:50:31;;;;;;;8.65;7.85;;;;;;;9.18;78.96;95780.13;5051506;28;20574;-73
2022/10/30 04:53:01;;;;;;;10.35;8.50;;;;;;;9.01;79.25;95771.97;5051293;28;20195;-73
2022/10/30 04:55:30;;;;;;;9.82;8.88;;;;;;;9.20;79.02;95775.88;5051660;28;20238;-72
2022/10/30 04:57:57;;;;;;;9.77;8.77;;;;;;;9.42;78.39;95763.66;5040609;28;20634;-74
2022/10/30 05:00:24;;;;;;;10.32;9.32;;;;;;;9.28;78.08;95771.53;5032072;28;20203;-73
2022/10/30 05:02:51;;;;;;;12.07;9.10;;;;;;;9.06;78.62;95771.06;5031631;28;20199;-73
2022/10/30 05:05:18;;;;;;;15.15;9.52;;;;;;;8.85;79.29;95766.31;5031891;28;20207;-73
2022/10/30 05:07:44;;;;;;;10.73;9.48;;;;;;;8.97;79.46;95772.88;5039861;28;20231;-73
2022/10/30 05:10:13;;;;;;;9.70;8.70;;;;;;;9.15;78.72;95768.38;5051888;28;20665;-73
2022/10/30 05:12:42;;;;;;;12.52;8.75;;;;;;;9.06;78.79;95780.34;5051219;28;20669;-74
2022/10/30 05:15:09;;;;;;;11.88;8.80;;;;;;;8.84;79.49;95783.22;5051455;28;20283;-74
2022/10/30 05:17:36;;;;;;;11.15;8.57;;;;;;;8.78;79.55;95788.38;5043842;28;20253;-73
2022/10/30 05:20:03;;;;;;;11.23;8.30;;;;;;;8.64;80.72;95786.94;5031480;28;20208;-73
2022/10/30 05:22:30;;;;;;;9.98;8.07;;;;;;;8.65;81.05;95791.97;5031177;28;20812;-73
2022/10/30 05:24:57;;;;;;;13.27;9.45;;;;;;;8.68;80.62;95789.38;5031518;28;20224;-73
2022/10/30 05:27:24;;;;;;;11.02;9.88;;;;;;;8.83;80.61;95778.19;5037094;28;20202;-73
2022/10/30 05:29:52;;;;;;;11.55;9.90;;;;;;;9.04;79.83;95780.38;5051451;28;20206;-72
2022/10/30 05:32:18;;;;;;;18.70;9.07;;;;;;;9.49;77.94;95786.38;5051302;28;20252;-73
2022/10/30 05:34:45;;;;;;;9.88;8.88;;;;;;;9.57;77.88;95783.69;5051553;28;20203;-76
2022/10/30 05:37:12;;;;;;;16.27;10.50;;;;;;;9.60;77.66;95786.19;5047297;28;20579;-75
2022/10/30 05:39:39;;;;;;;15.80;9.25;;;;;;;9.72;77.20;95790.19;5031202;28;20200;-73
2022/10/30 05:42:05;;;;;;;11.45;10.20;;;;;;;9.61;77.32;95789.56;5030898;28;20253;-74
2022/10/30 05:44:32;;;;;;;12.95;9.98;;;;;;;9.24;78.98;95781.75;5031039;28;20732;-74
2022/10/30 05:47:00;;;;;;;15.20;8.77;;;;;;;8.98;81.37;95782.16;5032358;28;20371;-74
2022/10/30 05:49:27;;;;;;;11.35;8.40;;;;;;;8.97;82.39;95781.31;5051110;28;20199;-74
2022/10/30 05:51:54;;;;;;;34.33;20.05;;;;;;;9.30;81.64;95779.09;5050578;28;20742;-74
2022/10/30 05:54:20;;;;;;;32.22;22.23;;;;;;;9.68;80.05;95786.03;5051285;28;20191;-73
2022/10/30 05:56:47;;;;;;;29.65;19.25;;;;;;;10.46;77.01;95792.94;5050962;28;20741;-74
2022/10/30 05:59:14;;;;;;;20.05;14.15;;;;;;;11.49;73.59;95787.97;5050654;28;20223;-74
2022/10/30 06:01:40;;;;;;;28.40;13.68;;;;;;;12.11;71.03;95779.56;5051019;28;20672;-75
2022/10/30 06:04:09;;;;;;;20.08;13.30;;;;;;;12.99;67.82;95779.47;5050884;28;20227;-74
2022/10/30 06:06:36;;;;;;;17.80;13.50;;;;;;;13.99;63.44;95777.00;5050635;28;20219;-74
2022/10/30 06:09:03;;;;;;;17.98;13.38;;;;;;;14.23;62.63;95771.84;5033457;28;20231;-72
2022/10/30 06:11:30;;;;;;;29.83;12.82;;;;;;;14.79;60.51;95776.59;5032252;28;20203;-74
2022/10/30 06:13:56;;;;;;;17.90;11.05;;;;;;;15.46;58.38;95779.00;5032223;28;20195;-74
2022/10/30 06:16:23;;;;;;;30.10;12.70;;;;;;;16.33;55.40;95765.84;5031144;28;20236;-74
2022/10/30 06:18:50;;;;;;;13.13;11.55;;;;;;;16.20;55.45;95764.72;5047329;28;20253;-74
2022/10/30 06:21:18;;;;;;;12.90;10.45;;;;;;;16.55;54.72;95763.16;5051003;28;20281;-73
2022/10/30 06:23:44;;;;;;;16.15;10.55;;;;;;;16.12;55.35;95774.47;5050904;28;20605;-74
2022/10/30 06:26:11;;;;;;;11.35;10.35;;;;;;;15.43;57.57;95779.13;5053234;28;20199;-73
2022/10/30 06:28:38;;;;;;;64.45;38.78;;;;;;;14.22;60.93;95782.94;5040090;28;20204;-75
2022/10/30 06:31:05;;;;;;;30.63;19.15;;;;;;;13.55;63.94;95782.75;5034762;28;20203;-74
2022/10/30 06:33:31;;;;;;;20.05;14.18;;;;;;;14.00;63.55;95784.59;5034812;28;20204;-75
2022/10/30 06:35:58;;;;;;;15.75;11.75;;;;;;;16.02;57.12;95780.09;5034561;28;20258;-73
2022/10/30 06:38:26;;;;;;;13.77;11.70;;;;;;;16.38;55.00;95775.06;5046815;28;20253;-74
2022/10/30 06:40:53;;;;;;;14.85;12.23;;;;;;;15.75;56.41;95782.94;5054395;28;20198;-73
2022/10/30 06:43:20;;;;;;;15.65;13.95;;;;;;;14.53;60.10;95785.25;5053989;28;20203;-73
2022/10/30 06:45:47;;;;;;;16.02;12.35;;;;;;;14.17;61.48;95789.09;5053839;28;20195;-73
2022/10/30 06:48:14;;;;;;;20.27;12.43;;;;;;;13.69;63.27;95795.03;5042801;28;20561;-74
2022/10/30 06:50:40;;;;;;;22.52;12.48;;;;;;;13.42;64.61;95796.81;5033768;28;20265;-72
2022/10/30 06:53:07;;;;;;;21.33;14.40;;;;;;;13.25;64.65;95804.19;5033342;28;21131;-73
2022/10/30 06:55:35;;;;;;;20.17;14.38;;;;;;;13.03;65.91;95798.06;5033214;28;20295;-74
2022/10/30 06:58:02;;;;;;;18.85;14.50;;;;;;;13.40;64.85;95788.34;5041948;28;20191;-73
2022/10/30 07:00:28;;;;;;;27.27;15.18;;;;;;;13.78;63.49;95784.53;5053567;28;20199;-74
2022/10/30 07:02:59;;;;;;;18.58;15.32;;;;;;;13.86;63.02;95787.63;5053358;28;20207;-72
2022/10/30 07:05:26;;;;;;;20.92;15.57;;;;;;;13.92;62.64;95781.47;5054505;28;20273;-73
2022/10/30 07:07:55;;;;;;;20.45;16.35;;;;;;;13.50;64.11;95784.63;5046393;28;20281;-73
2022/10/30 07:10:22;;;;;;;28.83;18.17;;;;;;;13.33;64.90;95797.13;5033450;28;20253;-73
2022/10/30 07:12:54;;;;;;;25.40;16.05;;;;;;;13.19;66.13;95799.28;5033697;28;20200;-73
2022/10/30 07:15:20;;;;;;;30.95;16.55;;;;;;;13.36;65.72;95785.97;5033806;28;20196;-73
2022/10/30 07:17:56;;;;;;;19.73;14.32;;;;;;;13.71;65.61;95782.22;5040402;28;20330;-74
2022/10/30 07:20:24;;;;;;;26.08;16.45;;;;;;;14.24;64.33;95782.88;5053908;28;20199;-73
2022/10/30 07:22:51;;;;;;;23.33;15.68;;;;;;;14.76;62.94;95771.56;5052887;28;20264;-73
2022/10/30 07:25:18;;;;;;;20.90;16.38;;;;;;;16.46;57.63;95768.69;5053266;28;20218;-74
2022/10/30 07:27:46;;;;;;;15.18;12.70;;;;;;;17.74;53.24;95757.47;5046856;28;20199;-75
2022/10/30 07:30:15;;;;;;;15.65;11.63;;;;;;;17.68;53.63;95753.44;5033383;28;20199;-73
2022/10/30 07:32:42;;;;;;;34.53;19.00;;;;;;;18.48;52.35;95751.88;5032557;28;20208;-71
2022/10/30 07:35:10;;;;;;;14.93;12.90;;;;;;;19.55;48.84;95759.69;5032854;28;20191;-72
2022/10/30 07:37:37;;;;;;;20.05;16.33;;;;;;;19.56;48.67;95762.16;5034604;28;20205;-74
2022/10/30 07:40:05;;;;;;;18.48;11.50;;;;;;;18.94;50.43;95758.78;5052463;28;20203;-73
2022/10/30 07:42:32;;;;;;;21.08;13.65;;;;;;;18.54;51.54;95761.84;5052442;28;20203;-72
2022/10/30 07:44:59;;;;;;;15.13;11.88;;;;;;;17.72;54.49;95758.44;5052498;28;20284;-73
2022/10/30 07:47:27;;;;;;;13.57;12.18;;;;;;;16.56;57.36;95749.44;5049734;28;20293;-72
2022/10/30 07:49:54;;;;;;;53.97;31.75;;;;;;;15.30;61.77;95762.59;5033089;28;20273;-73
2022/10/30 07:52:21;;;;;;;25.15;17.20;;;;;;;15.87;61.66;95763.63;5032473;28;20253;-72
2022/10/30 07:54:47;;;;;;;71.68;40.95;;;;;;;17.30;57.44;95741.66;5033594;28;20208;-71
2022/10/30 07:57:14;;;;;;;12.82;11.63;;;;;;;16.83;58.36;95742.19;5033107;28;20650;-75
2022/10/30 07:59:41;;;;;;;13.77;11.07;;;;;;;17.63;56.47;95745.09;5053422;28;20203;-72
2022/10/30 08:02:10;;;;;;;13.13;11.13;;;;;;;20.57;48.85;95732.91;5052068;28;20199;-73
2022/10/30 08:04:38;;;;;;;12.25;10.95;;;;;;;22.75;43.66;95724.38;5052761;28;20631;-72
2022/10/30 08:07:04;;;;;;;11.75;9.73;;;;;;;25.26;38.49;95712.97;5053573;28;20233;-73
2022/10/30 08:09:31;;;;;;;15.27;9.63;;;;;;;26.63;35.56;95713.63;5034067;28;20203;-71
2022/10/30 08:11:58;;;;;;;17.33;10.18;;;;;;;27.80;33.24;95707.53;5033418;28;20203;-72
2022/10/30 08:14:25;;;;;;;14.52;8.43;;;;;;;28.38;31.86;95697.75;5032828;28;20195;-72
2022/10/30 08:16:52;;;;;;;12.70;10.35;;;;;;;29.65;30.92;95692.34;5032980;28;20199;-70
2022/10/30 08:19:19;;;;;;;20.90;15.40;;;;;;;30.06;29.68;95697.84;5049381;28;20199;-72
2022/10/30 08:21:47;;;;;;;11.10;9.55;;;;;;;29.68;29.20;95696.44;5052922;28;20198;-72
2022/10/30 08:24:14;;;;;;;11.23;10.07;;;;;;;30.34;29.27;95686.22;5052928;28;20704;-72
2022/10/30 08:26:40;;;;;;;12.10;10.35;;;;;;;29.71;29.94;95689.09;5053948;28;20199;-72
2022/10/30 08:29:07;;;;;;;11.68;10.68;;;;;;;;;;5037166;28;20196;-72
2022/10/30 08:31:33;;;;;;;15.13;13.55;;;;;;;;;;5032970;28;20257;-75
2022/10/30 08:34:00;;;;;;;21.10;15.20;;;;;;;;;;5033056;28;20254;-72
2022/10/30 08:36:26;;;;;;;12.77;10.50;;;;;;;;;;5032508;28;20229;-72
2022/10/30 08:38:54;;;;;;;14.13;11.68;;;;;;;;;;5041468;28;20265;-75
2022/10/30 08:41:21;;;;;;;13.85;9.20;;;;;;;;;;5032827;28;20203;-73
2022/10/30 08:43:47;;;;;;;10.60;9.63;;;;;;;;;;5032319;28;20199;-73
2022/10/30 08:46:14;;;;;;;11.38;10.25;;;;;;;;;;5032772;28;20223;-73
2022/10/30 08:48:40;;;;;;;15.85;10.52;;;;;;;;;;5032170;28;20207;-72
2022/10/30 08:51:07;;;;;;;13.15;11.68;;;;;;;;;;5032578;28;20670;-72
2022/10/30 08:53:33;;;;;;;12.80;10.48;;;;;;;;;;5032501;28;20238;-73
2022/10/30 08:56:01;;;;;;;10.93;9.68;;;;;;;;;;5031462;28;20278;-72
2022/10/30 08:58:28;;;;;;;13.20;9.75;;;;;;;28.94;nan;95676.66;5031115;28;20539;-73
2022/10/30 09:00:54;;;;;;;14.80;11.18;;;;;;;28.93;nan;95675.00;5049709;28;20261;-73
2022/10/30 09:03:21;;;;;;;16.05;10.45;;;;;;;29.93;nan;95679.09;5050661;28;20199;-72
2022/10/30 09:05:48;;;;;;;12.10;9.48;;;;;;;30.49;nan;95668.06;5051221;28;20219;-72
2022/10/30 09:08:15;;;;;;;15.73;10.70;;;;;;;30.76;nan;95677.50;5051418;28;20219;-72
2022/10/30 09:10:42;;;;;;;21.42;11.30;;;;;;;30.85;nan;95660.00;5034206;28;20200;-73
2022/10/30 09:13:10;;;;;;;13.48;10.63;;;;;;;30.46;nan;95663.94;5031127;28;20774;-73
2022/10/30 09:15:36;;;;;;;16.10;9.52;;;;;;;29.93;nan;95666.00;5031166;28;20626;-73
2022/10/30 09:18:04;;;;;;;17.17;9.80;;;;;;;30.15;nan;95662.84;5031307;28;20203;-73
2022/10/30 09:20:31;;;;;;;12.10;9.52;;;;;;;29.64;nan;95661.88;5045442;28;20564;-73
2022/10/30 09:22:58;;;;;;;13.18;9.52;;;;;;;28.50;nan;95659.97;5050769;28;20207;-72
2022/10/30 09:25:25;;;;;;;12.10;9.93;;;;;;;29.11;nan;95657.50;5050842;28;20226;-73
2022/10/30 09:27:51;;;;;;;11.75;10.50;;;;;;;27.90;nan;95658.72;5051279;28;20672;-73
2022/10/30 09:30:20;;;;;;;11.30;10.30;;;;;;;27.01;nan;95660.72;5037866;28;20228;-73
2022/10/30 09:32:53;;;;;;;11.05;9.82;;;;;;;26.06;nan;95665.53;5030608;28;20208;-72
2022/10/30 09:35:20;;;;;;;11.48;10.20;;;;;;;25.78;nan;95664.44;5030989;28;20204;-73
2022/10/30 09:37:46;;;;;;;18.02;14.73;;;;;;;25.42;nan;95645.75;5030807;28;20249;-72
2022/10/30 09:40:21;;;;;;;12.70;11.25;;;;;;;24.39;nan;95639.38;5042405;28;20738;-73
2022/10/30 09:42:49;;;;;;;12.13;10.30;;;;;;;24.04;nan;95636.91;5050423;28;20676;-71
2022/10/30 09:45:52;;;;;;;11.85;9.63;;;;;;;23.12;nan;95649.16;5050692;28;20659;-72
2022/10/30 09:48:59;;;;;;;10.18;9.07;;;;;;;22.45;nan;95641.88;5050584;28;20748;-72
2022/10/30 09:51:50;;;;;;;12.20;9.15;;;;;;;21.89;nan;95635.47;5030711;28;20204;-72
2022/10/30 09:54:27;;;;;;;10.88;8.55;;;;;;;21.63;nan;95630.31;5030312;28;20192;-71
2022/10/30 09:57:00;;;;;;;12.77;9.75;;;;;;;21.26;nan;95631.16;5030760;28;20814;-73
2022/10/30 09:59:38;;;;;;;12.55;9.32;;;;;;;21.10;nan;95625.31;5036231;28;20234;-72
2022/10/30 10:02:28;;;;;;;14.93;10.27;;;;;;;21.08;nan;95619.41;5054089;28;20199;-73
2022/10/30 10:05:00;;;;;;;10.45;9.20;;;;;;;20.84;nan;95614.91;5054867;28;20231;-73
2022/10/30 10:07:30;;;;;;;13.43;9.48;;;;;;;20.94;nan;95610.81;5054082;28;20227;-72
2022/10/30 10:10:05;;;;;;;10.25;8.00;;;;;;;21.11;nan;95601.13;5045281;28;20199;-71
2022/10/30 10:12:38;;;;;;;8.45;7.65;;;;;;;21.09;nan;95597.81;5034157;28;20630;-73
2022/10/30 10:15:11;;;;;;;6.88;6.28;;;;;;;20.87;nan;95596.63;5035028;28;20257;-72
2022/10/30 10:17:44;;;;;;;9.10;7.55;;;;;;;21.02;nan;95587.06;5034074;28;20269;-72
2022/10/30 10:20:17;;;;;;;12.63;8.07;;;;;;;21.08;nan;95589.22;5045179;28;20210;-73
2022/10/30 10:22:48;;;;;;;10.82;9.38;;;;;;;21.10;nan;95594.28;5054129;28;20210;-72
2022/10/30 10:25:17;;;;;;;11.75;6.95;;;;;;;21.37;nan;95587.31;5054208;28;20222;-73
2022/10/30 10:28:06;;;;;;;6.78;6.13;;;;;;;21.37;nan;95587.31;5054200;28;20252;-70
2022/10/30 10:30:43;;;;;;;10.75;9.55;;;;;;;21.15;nan;95576.72;5039919;28;20200;-72
2022/10/30 10:33:33;;;;;;;9.80;8.18;;;;;;;21.33;nan;95570.34;5034143;28;20202;-72
2022/10/30 10:36:11;;;;;;;6.75;5.82;;;;;;;21.60;nan;95568.44;5024717;28;20265;-73
2022/10/30 10:38:53;;;;;;;7.40;5.28;;;;;;;21.15;nan;95566.38;5036235;28;20206;-73
2022/10/30 10:41:30;;;;;;;7.22;5.28;;;;;;;21.25;nan;95562.28;5034959;28;20626;-72
2022/10/30 10:44:16;;;;;;;6.30;5.00;;;;;;;21.32;nan;95553.16;5035636;28;20211;-73
2022/10/30 10:47:00;;;;;;;7.53;5.72;;;;;;;21.37;nan;95546.75;5035515;28;20284;-73
2022/10/30 10:49:47;;;;;;;12.98;7.60;;;;;;;21.51;nan;95548.41;5034840;28;20560;-73
2022/10/30 10:52:19;;;;;;;6.93;5.95;;;;;;;21.50;nan;95546.75;5034958;28;20758;-72
2022/10/30 10:54:49;;;;;;;8.45;6.25;;;;;;;21.69;nan;95544.53;5036309;28;20207;-75
2022/10/30 10:57:25;;;;;;;8.23;6.00;;;;;;;21.92;nan;95537.75;5033631;28;20725;-75
2022/10/30 10:59:56;;;;;;;11.98;5.88;;;;;;;22.04;nan;95531.72;5034247;28;20199;-74
2022/10/30 11:02:33;;;;;;;7.15;6.40;;;;;;;22.23;nan;95530.44;5034930;28;20662;-74
2022/10/30 11:05:07;;;;;;;10.55;9.45;;;;;;;22.26;nan;95525.84;5036339;28;20218;-71
2022/10/30 11:07:44;;;;;;;10.68;8.32;;;;;;;22.25;nan;95519.03;5037656;28;20284;-74
2022/10/30 11:10:14;;;;;;;6.90;5.28;;;;;;;22.19;nan;95514.28;5034487;28;20210;-72
2022/10/30 11:12:41;;;;;;;8.02;4.90;;;;;;;22.12;nan;95507.88;5034723;28;20214;-71
2022/10/30 11:15:33;;;;;;;5.72;4.50;;;;;;;22.19;nan;95503.94;5034287;28;20322;-72
2022/10/30 11:18:02;;;;;;;5.32;4.55;;;;;;;22.20;nan;95504.75;5031409;28;20886;-71
2022/10/30 11:20:37;;;;;;;5.22;4.35;;;;;;;22.09;nan;95502.94;5033150;28;20260;-73
2022/10/30 11:23:04;;;;;;;5.47;4.07;;;;;;;22.11;nan;95506.22;5033003;28;20688;-71
2022/10/30 11:25:35;;;;;;;5.25;4.70;;;;;;;22.10;nan;95502.00;5034163;28;20227;-74
2022/10/30 11:28:04;;;;;;;4.35;4.00;;;;;;;22.09;nan;95495.16;5033677;28;20215;-72
2022/10/30 11:30:31;;;;;;;6.50;3.88;;;;;;;22.09;nan;95490.00;5033731;28;20206;-74
2022/10/30 11:32:59;;;;;;;5.80;4.43;;;;;;;22.06;nan;95482.44;5032898;28;20272;-73
2022/10/30 11:35:26;;;;;;;5.75;4.18;;;;;;;22.11;nan;95474.34;5034038;28;20276;-72
2022/10/30 11:38:12;;;;;;;5.43;3.90;;;;;;;22.34;nan;95481.25;5034185;28;20653;-72
2022/10/30 11:40:40;;;;;;;4.80;4.40;;;;;;;22.50;nan;95475.81;5034179;28;20205;-70
2022/10/30 11:43:09;;;;;;;6.30;4.35;;;;;;;22.50;nan;95475.81;5034129;28;20219;-71
2022/10/30 11:45:39;;;;;;;7.40;4.68;;;;;;;22.44;nan;95471.06;5034193;28;20272;-70